Time;durP1;ratioP1;P1;durP2;ratioP2;P2;SDS_P1;SDS_P2;PMS_P1;PMS_P2;Temp;Humidity;BMP_temperature;BMP_pressure;BME280_temperature;BME280_humidity;BME280_pressure;Samples;Min_cycle;Max_cycle;Signal;HPM_P1;HPM_P2
2022/05/31 00:01:23;;;;;;;7.35;2.03;;;20.90;53.70;;;;;;5056333;28;20108;-62
2022/05/31 00:03:49;;;;;;;7.80;2.28;;;20.90;53.50;;;;;;5065727;28;20435;-62
2022/05/31 00:06:15;;;;;;;6.13;2.17;;;20.90;53.50;;;;;;5060846;28;20036;-62
2022/05/31 00:08:40;;;;;;;6.72;2.42;;;20.90;53.60;;;;;;5054908;28;20082;-62
2022/05/31 00:11:06;;;;;;;7.00;2.20;;;20.90;53.80;;;;;;5058541;28;20452;-63
2022/05/31 00:13:32;;;;;;;5.38;1.98;;;20.90;53.80;;;;;;5059236;28;20086;-63
2022/05/31 00:15:58;;;;;;;6.07;1.83;;;20.80;53.60;;;;;;5058264;28;20401;-63
2022/05/31 00:18:24;;;;;;;4.68;1.95;;;20.80;53.60;;;;;;5055867;28;20484;-63
2022/05/31 00:20:49;;;;;;;6.30;1.98;;;20.80;53.60;;;;;;5057405;28;20035;-62
2022/05/31 00:23:15;;;;;;;5.47;1.92;;;20.80;53.60;;;;;;5055684;28;20056;-63
2022/05/31 00:25:40;;;;;;;5.22;2.10;;;20.80;53.70;;;;;;5062909;28;20054;-63
2022/05/31 00:28:06;;;;;;;6.60;2.10;;;20.80;53.70;;;;;;5056984;28;20048;-62
2022/05/31 00:30:32;;;;;;;7.85;1.83;;;20.80;53.70;;;;;;5057492;28;20431;-63
2022/05/31 00:32:57;;;;;;;5.00;1.80;;;20.70;53.70;;;;;;5057924;28;20013;-63
2022/05/31 00:35:27;;;;;;;4.75;2.15;;;20.70;53.70;;;;;;5063718;28;20029;-63
2022/05/31 00:37:54;;;;;;;5.15;2.00;;;20.70;53.70;;;;;;5063479;28;20020;-62
2022/05/31 00:40:21;;;;;;;4.13;1.83;;;20.70;53.70;;;;;;5061101;28;20021;-62
2022/05/31 00:42:53;;;;;;;4.72;1.80;;;20.70;53.80;;;;;;5059723;28;20025;-62
2022/05/31 00:45:19;;;;;;;3.75;1.80;;;20.70;53.70;;;;;;5060957;28;20029;-62
2022/05/31 00:47:45;;;;;;;3.95;1.92;;;20.70;53.80;;;;;;5059612;28;20036;-63
2022/05/31 00:50:23;;;;;;;6.38;2.22;;;20.60;53.70;;;;;;5058884;28;20029;-62
2022/05/31 00:52:51;;;;;;;5.40;1.85;;;20.60;53.80;;;;;;5057394;28;20024;-62
2022/05/31 00:55:26;;;;;;;5.57;2.22;;;20.60;53.80;;;;;;5048424;28;20491;-62
2022/05/31 00:57:58;;;;;;;7.13;2.13;;;20.60;53.80;;;;;;5062372;28;20033;-62
2022/05/31 01:00:24;;;;;;;3.78;1.77;;;20.60;53.80;;;;;;5062704;28;20024;-63
2022/05/31 01:02:49;;;;;;;6.07;2.20;;;20.60;53.80;;;;;;5063586;28;20093;-62
2022/05/31 01:05:15;;;;;;;5.47;2.20;;;20.60;53.90;;;;;;5059681;28;20028;-63
2022/05/31 01:07:41;;;;;;;3.67;1.90;;;20.60;53.80;;;;;;5061951;28;20513;-62
2022/05/31 01:10:08;;;;;;;5.63;2.08;;;20.60;53.70;;;;;;5053476;28;20056;-62
2022/05/31 01:12:33;;;;;;;4.80;2.08;;;20.60;54.70;;;;;;5061999;28;20115;-63
2022/05/31 01:14:59;;;;;;;4.68;1.90;;;20.60;53.90;;;;;;5059712;28;20058;-63
2022/05/31 01:17:25;;;;;;;4.57;1.80;;;20.60;53.90;;;;;;5055113;28;20036;-63
2022/05/31 01:20:01;;;;;;;6.65;2.40;;;20.60;53.90;;;;;;5053951;28;20103;-62
2022/05/31 01:22:43;;;;;;;5.03;1.80;;;20.50;53.90;;;;;;5056446;28;20048;-63
2022/05/31 01:25:14;;;;;;;4.03;1.75;;;20.50;53.90;;;;;;5058726;28;20043;-63
2022/05/31 01:27:49;;;;;;;6.10;1.80;;;20.50;54.00;;;;;;5053461;28;20029;-63
2022/05/31 01:30:15;;;;;;;;;;;20.50;54.00;;;;;;5057023;28;20041;-63
2022/05/31 01:32:47;;;;;;;6.38;1.95;;;20.50;54.00;;;;;;5057866;28;19962;-62
2022/05/31 01:35:23;;;;;;;3.58;1.83;;;20.50;54.00;;;;;;5059464;28;20569;-62
2022/05/31 01:37:59;;;;;;;5.53;1.80;;;20.50;54.10;;;;;;5068744;28;20021;-63
2022/05/31 01:40:37;;;;;;;4.32;1.70;;;20.40;54.00;;;;;;5058362;28;20037;-63
2022/05/31 01:43:03;;;;;;;5.93;1.83;;;20.40;54.00;;;;;;5059912;28;20016;-62
2022/05/31 01:45:36;;;;;;;3.25;1.80;;;20.40;54.00;;;;;;5056264;28;20091;-62
2022/05/31 01:48:03;;;;;;;4.43;1.90;;;20.40;54.00;;;;;;5052304;28;20051;-62
2022/05/31 01:50:29;;;;;;;3.60;1.70;;;20.40;54.10;;;;;;5058588;28;20017;-62
2022/05/31 01:52:54;;;;;;;3.72;1.85;;;20.40;54.10;;;;;;5055210;28;20034;-62
2022/05/31 01:55:20;;;;;;;4.90;1.63;;;20.40;54.10;;;;;;5059206;28;20082;-63
2022/05/31 01:57:47;;;;;;;4.07;1.90;;;20.40;54.00;;;;;;5063677;28;20036;-62
2022/05/31 02:00:13;;;;;;;4.55;1.63;;;20.40;54.10;;;;;;5058490;28;20058;-62
2022/05/31 02:02:39;;;;;;;3.30;1.60;;;20.40;54.10;;;;;;5056059;28;20493;-62
2022/05/31 02:05:05;;;;;;;3.20;1.63;;;20.40;54.10;;;;;;5055719;28;20464;-62
2022/05/31 02:07:31;;;;;;;6.20;1.85;;;20.30;54.00;;;;;;5057280;28;20036;-62
2022/05/31 02:09:57;;;;;;;5.05;1.90;;;20.30;54.10;;;;;;5061871;28;20041;-62
2022/05/31 02:12:24;;;;;;;5.78;1.88;;;20.30;54.10;;;;;;5058782;28;20439;-62
2022/05/31 02:14:50;;;;;;;4.82;1.80;;;20.30;54.10;;;;;;5057206;28;20024;-62
2022/05/31 02:17:16;;;;;;;4.70;1.77;;;20.30;54.10;;;;;;5057661;28;20102;-62
2022/05/31 02:19:42;;;;;;;5.45;1.80;;;20.30;54.10;;;;;;5055942;28;20447;-62
2022/05/31 02:22:09;;;;;;;3.90;1.60;;;20.30;54.10;;;;;;5063259;28;20389;-62
2022/05/31 02:24:35;;;;;;;2.88;1.60;;;20.30;54.10;;;;;;5064393;28;20508;-62
2022/05/31 02:27:01;;;;;;;4.95;1.80;;;20.30;54.10;;;;;;5061651;28;20025;-62
2022/05/31 02:29:29;;;;;;;3.50;1.70;;;20.20;54.10;;;;;;5061812;28;20054;-62
2022/05/31 02:31:59;;;;;;;3.33;1.70;;;20.20;54.20;;;;;;5063077;28;20035;-62
2022/05/31 02:34:28;;;;;;;3.75;1.60;;;20.20;54.10;;;;;;5061969;28;20605;-62
2022/05/31 02:36:54;;;;;;;3.47;1.70;;;20.20;54.20;;;;;;5060435;28;20086;-62
2022/05/31 02:39:20;;;;;;;3.88;1.77;;;20.20;54.20;;;;;;5056418;28;20033;-62
2022/05/31 02:41:46;;;;;;;4.75;1.83;;;20.20;54.20;;;;;;5056719;28;20032;-62
2022/05/31 02:44:11;;;;;;;3.45;1.58;;;20.20;54.20;;;;;;5061067;28;20028;-62
2022/05/31 02:46:37;;;;;;;4.55;2.30;;;20.20;54.20;;;;;;5060795;28;20086;-62
2022/05/31 02:49:04;;;;;;;3.28;1.90;;;20.20;54.20;;;;;;5057210;28;20045;-62
2022/05/31 02:51:33;;;;;;;2.72;1.50;;;20.20;54.20;;;;;;5062117;28;20024;-62
2022/05/31 02:53:59;;;;;;;4.32;1.80;;;20.10;54.20;;;;;;5060490;28;20394;-62
2022/05/31 02:56:24;;;;;;;3.47;1.60;;;20.20;54.20;;;;;;5065038;28;20035;-62
2022/05/31 02:58:50;;;;;;;4.85;1.50;;;20.10;54.20;;;;;;5060747;28;20566;-62
2022/05/31 03:01:40;;;;;;;4.28;1.60;;;20.20;54.20;;;;;;5064916;28;20110;-62
2022/05/31 03:04:06;;;;;;;6.43;1.70;;;20.10;54.20;;;;;;5055385;28;20029;-62
2022/05/31 03:06:31;;;;;;;5.07;1.70;;;20.10;54.20;;;;;;5060180;28;20043;-62
2022/05/31 03:08:58;;;;;;;3.95;1.60;;;20.10;54.20;;;;;;5064384;28;20044;-62
2022/05/31 03:11:26;;;;;;;4.78;1.70;;;20.10;54.30;;;;;;5059141;28;20029;-62
2022/05/31 03:13:54;;;;;;;4.10;1.92;;;20.10;54.20;;;;;;5060871;28;20020;-62
2022/05/31 03:16:20;;;;;;;4.60;1.67;;;20.10;54.30;;;;;;5060112;28;20032;-62
2022/05/31 03:18:57;;;;;;;4.50;1.60;;;20.10;54.40;;;;;;5066959;28;20421;-62
2022/05/31 03:21:26;;;;;;;2.70;1.70;;;20.10;54.40;;;;;;5060284;28;20029;-62
2022/05/31 03:23:58;;;;;;;3.42;1.63;;;20.00;54.20;;;;;;5060318;28;20440;-62
2022/05/31 03:26:24;;;;;;;4.40;1.77;;;20.00;54.30;;;;;;5072492;28;20064;-62
2022/05/31 03:28:50;;;;;;;3.28;1.60;;;20.00;54.30;;;;;;5074297;28;20064;-62
2022/05/31 03:31:16;;;;;;;3.33;1.80;;;20.00;54.30;;;;;;5059214;28;20025;-62
2022/05/31 03:33:41;;;;;;;4.45;1.80;;;20.00;54.30;;;;;;5053160;28;20035;-62
2022/05/31 03:36:07;;;;;;;4.82;1.77;;;20.00;54.40;;;;;;5061324;28;20043;-62
2022/05/31 03:38:33;;;;;;;3.03;1.80;;;20.00;54.40;;;;;;5062267;28;20025;-62
2022/05/31 03:40:58;;;;;;;4.40;1.90;;;20.00;54.40;;;;;;5059133;28;20115;-62
2022/05/31 03:43:29;;;;;;;4.13;1.80;;;20.00;54.40;;;;;;5060234;28;20116;-62
2022/05/31 03:45:55;;;;;;;2.78;1.52;;;20.00;54.40;;;;;;5056988;28;20075;-62
2022/05/31 03:48:20;;;;;;;4.38;1.73;;;20.00;54.40;;;;;;5059983;28;20049;-62
2022/05/31 03:50:46;;;;;;;5.07;1.80;;;20.00;54.50;;;;;;5060792;28;20029;-62
2022/05/31 03:53:13;;;;;;;4.47;1.80;;;19.90;54.40;;;;;;5059173;28;20477;-62
2022/05/31 03:55:42;;;;;;;3.70;1.60;;;19.90;54.40;;;;;;5057163;28;20021;-62
2022/05/31 03:58:08;;;;;;;2.80;1.50;;;19.90;54.50;;;;;;5053240;28;20016;-62
2022/05/31 04:00:34;;;;;;;3.78;1.70;;;19.90;54.50;;;;;;5059630;28;20032;-62
2022/05/31 04:03:00;;;;;;;5.45;1.98;;;19.90;54.40;;;;;;5057447;28;20024;-62
2022/05/31 04:05:25;;;;;;;5.78;2.00;;;19.90;54.60;;;;;;5062014;28;20035;-62
2022/05/31 04:07:52;;;;;;;3.90;1.60;;;19.90;54.50;;;;;;5058589;28;20666;-62
2022/05/31 04:10:18;;;;;;;4.00;1.70;;;19.90;54.40;;;;;;5061219;28;20029;-62
2022/05/31 04:12:43;;;;;;;4.85;1.70;;;19.90;54.60;;;;;;5059525;28;20028;-61
2022/05/31 04:15:09;;;;;;;5.20;1.80;;;19.90;54.40;;;;;;5057735;28;20024;-62
2022/05/31 04:17:35;;;;;;;4.03;1.80;;;19.90;54.70;;;;;;5056109;28;20234;-62
2022/05/31 04:20:00;;;;;;;2.80;1.55;;;19.90;54.70;;;;;;5056497;28;20094;-62
2022/05/31 04:22:26;;;;;;;4.97;1.67;;;19.90;54.80;;;;;;5058919;28;20063;-62
2022/05/31 04:24:54;;;;;;;2.92;1.70;;;19.90;54.70;;;;;;5057770;28;20107;-62
2022/05/31 04:27:20;;;;;;;5.03;1.77;;;19.90;54.70;;;;;;5061267;28;20445;-62
2022/05/31 04:29:46;;;;;;;6.88;1.88;;;19.80;54.60;;;;;;5060490;28;22278;-62
2022/05/31 04:32:15;;;;;;;4.30;1.65;;;19.80;54.70;;;;;;5059268;28;20497;-62
2022/05/31 04:34:41;;;;;;;4.03;1.77;;;19.80;54.80;;;;;;5056695;28;20041;-62
2022/05/31 04:37:07;;;;;;;4.38;2.00;;;19.80;54.70;;;;;;5057429;28;20024;-62
2022/05/31 04:39:33;;;;;;;4.28;1.85;;;19.80;54.70;;;;;;5060893;28;20033;-62
2022/05/31 04:41:58;;;;;;;3.92;2.05;;;19.80;54.70;;;;;;5061523;28;20027;-62
2022/05/31 04:44:24;;;;;;;3.95;1.88;;;19.80;54.80;;;;;;5056460;28;20032;-62
2022/05/31 04:46:50;;;;;;;3.67;1.73;;;19.80;54.70;;;;;;5059967;28;20024;-62
2022/05/31 04:49:16;;;;;;;3.13;1.80;;;19.80;54.70;;;;;;5056385;28;20049;-62
2022/05/31 04:51:43;;;;;;;3.17;1.75;;;19.80;54.70;;;;;;5056183;28;20032;-62
2022/05/31 04:54:08;;;;;;;3.72;1.80;;;19.80;54.70;;;;;;5059265;28;20163;-62
2022/05/31 04:56:34;;;;;;;4.32;1.98;;;19.80;54.80;;;;;;5057451;28;20128;-62
2022/05/31 04:59:00;;;;;;;4.40;1.98;;;19.80;54.70;;;;;;5054592;28;20036;-62
2022/05/31 05:01:26;;;;;;;3.58;1.98;;;19.70;54.20;;;;;;5058439;28;20404;-62
2022/05/31 05:03:51;;;;;;;4.45;2.00;;;19.70;54.40;;;;;;5062301;28;20510;-61
2022/05/31 05:06:18;;;;;;;3.22;1.77;;;19.80;54.50;;;;;;5057736;28;20135;-61
2022/05/31 05:08:43;;;;;;;4.00;1.95;;;19.80;54.50;;;;;;5063984;28;20033;-61
2022/05/31 05:11:11;;;;;;;5.90;1.90;;;19.70;54.40;;;;;;5060008;28;20400;-61
2022/05/31 05:13:37;;;;;;;5.20;2.08;;;19.80;54.90;;;;;;5058937;28;20033;-61
2022/05/31 05:16:04;;;;;;;4.53;1.90;;;19.80;55.00;;;;;;5050426;28;20029;-61
2022/05/31 05:18:30;;;;;;;4.45;2.10;;;19.80;54.90;;;;;;5057922;28;20563;-61
2022/05/31 05:20:56;;;;;;;8.65;2.10;;;19.80;54.90;;;;;;5058810;28;20709;-61
2022/05/31 05:23:21;;;;;;;6.68;2.40;;;19.80;55.60;;;;;;5058943;28;20028;-61
2022/05/31 05:25:51;;;;;;;10.80;2.65;;;19.80;55.60;;;;;;5060972;28;20037;-59
2022/05/31 05:31:00;;;;;;;15.10;2.40;;;19.80;56.10;;;;;;5055193;28;20040;-61
2022/05/31 05:33:27;;;;;;;12.52;2.42;;;19.80;56.30;;;;;;5055043;28;20028;-62
2022/05/31 05:35:53;;;;;;;9.77;2.30;;;19.80;56.30;;;;;;5053172;28;20043;-62
2022/05/31 05:38:18;;;;;;;8.90;2.13;;;19.80;56.20;;;;;;5055237;28;20032;-61
2022/05/31 05:40:44;;;;;;;7.90;2.08;;;19.80;56.10;;;;;;5058190;28;20032;-61
2022/05/31 05:43:10;;;;;;;8.70;2.47;;;19.80;56.00;;;;;;5054689;28;20523;-61
2022/05/31 05:45:36;;;;;;;7.97;2.30;;;19.80;55.90;;;;;;5054892;28;20014;-61
2022/05/31 05:48:02;;;;;;;6.68;2.30;;;19.80;55.90;;;;;;5053492;28;20571;-61
2022/05/31 05:50:27;;;;;;;8.73;2.30;;;19.80;55.90;;;;;;5055313;28;20090;-61
2022/05/31 05:53:04;;;;;;;5.35;2.00;;;19.80;55.90;;;;;;5050119;28;20110;-61
2022/05/31 05:55:30;;;;;;;5.35;2.05;;;19.80;56.00;;;;;;5052154;28;20024;-61
2022/05/31 05:57:55;;;;;;;8.05;2.20;;;19.80;56.00;;;;;;5053738;28;20021;-61
2022/05/31 06:00:23;;;;;;;7.68;2.30;;;19.80;56.00;;;;;;5057689;28;20490;-61
2022/05/31 06:03:02;;;;;;;7.45;2.58;;;19.80;56.00;;;;;;5060277;28;20044;-61
2022/05/31 06:05:29;;;;;;;8.50;2.38;;;19.80;56.10;;;;;;5057681;28;20028;-61
2022/05/31 06:07:59;;;;;;;6.57;2.20;;;19.80;56.10;;;;;;5057892;28;20496;-61
2022/05/31 06:10:28;;;;;;;6.43;2.20;;;19.80;56.10;;;;;;5062541;28;20040;-61
2022/05/31 06:12:57;;;;;;;11.23;2.40;;;19.80;56.10;;;;;;5063698;28;20021;-61
2022/05/31 06:15:25;;;;;;;10.95;2.50;;;19.80;56.10;;;;;;5068785;28;20093;-61
2022/05/31 06:17:53;;;;;;;8.98;2.38;;;19.80;56.10;;;;;;5062516;28;20089;-61
2022/05/31 06:20:19;;;;;;;5.45;2.22;;;19.80;56.10;;;;;;5060628;28;20027;-61
2022/05/31 06:22:45;;;;;;;6.90;2.25;;;19.80;56.10;;;;;;5054406;28;20405;-61
2022/05/31 06:25:13;;;;;;;4.97;2.03;;;19.80;56.10;;;;;;5059150;28;20398;-61
2022/05/31 06:27:38;;;;;;;7.45;2.08;;;19.80;56.20;;;;;;5057252;28;20028;-61
2022/05/31 06:30:05;;;;;;;8.73;2.10;;;19.80;56.30;;;;;;5059590;28;20041;-61
2022/05/31 06:32:30;;;;;;;8.32;2.38;;;19.80;56.30;;;;;;5059129;28;20049;-61
2022/05/31 06:34:56;;;;;;;9.50;2.55;;;19.80;56.30;;;;;;5053282;28;20421;-61
2022/05/31 06:37:22;;;;;;;7.38;2.25;;;19.80;56.40;;;;;;5055298;28;20024;-61
2022/05/31 06:39:48;;;;;;;7.53;2.30;;;19.80;56.40;;;;;;5064939;28;20033;-62
2022/05/31 06:42:13;;;;;;;6.28;2.28;;;19.80;56.40;;;;;;5061539;28;20021;-61
2022/05/31 06:44:40;;;;;;;7.35;2.30;;;19.80;56.40;;;;;;5060856;28;20028;-61
2022/05/31 06:47:06;;;;;;;8.10;2.33;;;19.80;57.40;;;;;;5054820;28;20055;-61
2022/05/31 06:49:32;;;;;;;7.03;2.10;;;19.80;56.40;;;;;;5062042;28;20040;-61
2022/05/31 06:57:32;;;;;;;7.13;2.63;;;19.80;56.50;;;;;;5059089;28;20059;-61
2022/05/31 06:59:58;;;;;;;9.30;2.40;;;19.80;56.60;;;;;;5061595;28;20460;-61
2022/05/31 07:02:24;;;;;;;7.30;2.40;;;19.80;56.60;;;;;;5055121;28;20030;-61
2022/05/31 07:04:49;;;;;;;9.02;2.33;;;19.80;56.60;;;;;;5053376;28;20028;-61
2022/05/31 07:07:15;;;;;;;5.47;2.00;;;19.80;56.60;;;;;;5061130;28;20460;-61
2022/05/31 07:09:41;;;;;;;8.75;2.40;;;19.80;56.70;;;;;;5061986;28;20072;-61
2022/05/31 07:12:07;;;;;;;7.10;2.10;;;19.80;56.60;;;;;;5061604;28;20096;-61
2022/05/31 07:14:32;;;;;;;5.15;2.00;;;19.80;56.60;;;;;;5058374;28;20024;-61
2022/05/31 07:16:58;;;;;;;6.70;2.38;;;19.80;56.70;;;;;;5062739;28;20435;-61
2022/05/31 07:19:23;;;;;;;6.47;2.28;;;19.80;56.60;;;;;;5066077;28;20547;-61
2022/05/31 07:21:49;;;;;;;6.45;1.95;;;19.80;56.60;;;;;;5064705;28;20033;-61
2022/05/31 07:24:15;;;;;;;5.75;2.08;;;19.80;56.70;;;;;;5061599;28;20453;-61
2022/05/31 07:26:40;;;;;;;5.20;2.20;;;19.80;56.60;;;;;;5063868;28;20451;-61
2022/05/31 07:29:06;;;;;;;5.07;1.83;;;19.80;56.60;;;;;;5063319;28;20028;-61
2022/05/31 07:31:32;;;;;;;6.78;2.45;;;19.80;56.60;;;;;;5058015;28;20110;-61
2022/05/31 07:33:58;;;;;;;5.72;2.17;;;19.80;56.60;;;;;;5064126;28;20033;-61
2022/05/31 07:36:24;;;;;;;8.57;2.35;;;19.80;56.60;;;;;;5065473;28;20052;-61
2022/05/31 07:38:49;;;;;;;5.45;2.10;;;19.80;56.60;;;;;;5068940;28;20052;-61
2022/05/31 07:41:15;;;;;;;6.05;2.10;;;19.80;56.60;;;;;;5063690;28;20499;-61
2022/05/31 07:43:41;;;;;;;5.70;1.90;;;19.80;56.60;;;;;;5061171;28;20515;-61
2022/05/31 07:46:10;;;;;;;4.75;2.15;;;19.80;56.60;;;;;;5066804;28;20107;-61
2022/05/31 07:48:36;;;;;;;7.22;2.00;;;19.90;56.60;;;;;;5061545;28;20059;-61
2022/05/31 07:51:02;;;;;;;6.50;1.90;;;19.90;56.50;;;;;;5062757;28;20063;-61
2022/05/31 07:53:27;;;;;;;8.48;2.20;;;19.90;56.60;;;;;;5058993;28;20028;-61
2022/05/31 07:56:06;;;;;;;7.22;2.30;;;19.90;56.50;;;;;;5055910;28;20082;-61
2022/05/31 07:58:33;;;;;;;6.07;2.03;;;19.90;56.60;;;;;;5060475;28;20071;-61
2022/05/31 08:01:00;;;;;;;6.22;1.90;;;19.90;56.50;;;;;;5068013;28;20104;-61
2022/05/31 08:03:26;;;;;;;5.80;2.08;;;19.90;56.50;;;;;;5065871;28;20068;-61
2022/05/31 08:05:51;;;;;;;5.63;2.10;;;19.90;56.60;;;;;;5063557;28;20110;-61
2022/05/31 08:08:17;;;;;;;5.63;2.40;;;19.90;56.60;;;;;;5062341;28;20695;-61
2022/05/31 08:10:43;;;;;;;8.27;2.40;;;20.00;56.60;;;;;;5062933;28;20020;-61
2022/05/31 08:13:09;;;;;;;5.50;1.92;;;19.90;56.60;;;;;;5059344;28;20397;-61
2022/05/31 08:15:35;;;;;;;5.80;1.92;;;20.00;56.60;;;;;;5061262;28;20021;-61
2022/05/31 08:18:01;;;;;;;4.95;1.92;;;20.00;56.60;;;;;;5062372;28;20039;-61
2022/05/31 08:20:26;;;;;;;6.55;2.15;;;20.00;56.60;;;;;;5062722;28;20017;-61
2022/05/31 08:22:52;;;;;;;6.43;2.20;;;20.00;56.60;;;;;;5059835;28;20115;-61
2022/05/31 08:25:18;;;;;;;4.40;2.20;;;20.00;56.60;;;;;;5055138;28;20120;-61
2022/05/31 08:27:43;;;;;;;7.18;2.40;;;20.00;56.60;;;;;;5076519;28;20029;-62
2022/05/31 08:30:09;;;;;;;4.43;2.10;;;20.00;56.60;;;;;;5066323;28;20409;-61
2022/05/31 08:32:36;;;;;;;6.07;2.40;;;20.00;56.50;;;;;;5058621;28;20024;-61
2022/05/31 08:35:03;;;;;;;6.15;2.17;;;20.00;56.50;;;;;;5057922;28;20036;-61
2022/05/31 08:37:30;;;;;;;3.92;1.90;;;20.00;56.50;;;;;;5060477;28;20040;-61
2022/05/31 08:39:56;;;;;;;4.90;1.98;;;20.00;56.50;;;;;;5067078;28;20543;-62
2022/05/31 08:42:24;;;;;;;5.75;2.20;;;20.10;56.50;;;;;;5062906;28;20121;-61
2022/05/31 08:45:00;;;;;;;5.97;2.13;;;20.10;56.50;;;;;;5059401;28;20021;-61
2022/05/31 08:47:51;;;;;;;7.00;2.13;;;20.10;56.40;;;;;;5060076;28;20060;-61
2022/05/31 08:53:26;;;;;;;5.13;2.30;;;20.10;56.40;;;;;;5061216;28;20099;-62
2022/05/31 08:58:55;;;;;;;5.50;2.10;;;20.10;56.40;;;;;;5058939;28;20032;-61
2022/05/31 09:01:23;;;;;;;6.10;2.05;;;20.10;56.40;;;;;;5063668;28;20029;-61
2022/05/31 09:03:51;;;;;;;5.25;1.90;;;20.10;56.40;;;;;;5068178;28;20052;-61
2022/05/31 09:06:20;;;;;;;5.13;2.25;;;20.10;56.30;;;;;;5059777;28;20619;-61
2022/05/31 09:09:12;;;;;;;4.13;1.90;;;20.10;56.30;;;;;;5052177;28;20044;-61
2022/05/31 09:11:39;;;;;;;4.43;2.00;;;20.10;56.30;;;;;;5061311;28;20114;-61
2022/05/31 09:14:11;;;;;;;4.50;1.85;;;20.10;56.30;;;;;;5075856;28;20032;-61
2022/05/31 09:16:45;;;;;;;6.03;2.20;;;20.10;56.20;;;;;;5062760;28;20020;-61
2022/05/31 09:19:14;;;;;;;6.07;2.30;;;20.20;56.40;;;;;;5066967;28;20029;-61
2022/05/31 09:21:41;;;;;;;4.38;2.08;;;20.20;56.30;;;;;;5076029;28;20090;-62
2022/05/31 09:24:17;;;;;;;5.45;2.10;;;20.20;56.20;;;;;;5061862;28;20033;-61
2022/05/31 09:27:20;;;;;;;4.47;2.08;;;20.20;56.10;;;;;;5084084;28;20024;-61
2022/05/31 09:29:56;;;;;;;4.78;2.08;;;20.20;56.10;;;;;;5066950;28;20032;-61
2022/05/31 09:32:22;;;;;;;6.78;2.45;;;20.20;56.20;;;;;;5062331;28;20400;-61
2022/05/31 09:34:51;;;;;;;7.20;1.98;;;20.30;56.10;;;;;;5053512;28;20028;-61
2022/05/31 09:37:35;;;;;;;4.40;2.00;;;20.20;56.00;;;;;;5059630;28;20041;-61
2022/05/31 09:40:21;;;;;;;6.13;2.20;;;20.20;56.10;;;;;;5062568;28;20140;-61
2022/05/31 09:43:10;;;;;;;5.60;2.10;;;20.30;56.10;;;;;;5062110;28;20028;-62
2022/05/31 09:45:38;;;;;;;5.97;2.20;;;20.30;56.10;;;;;;5072148;28;20473;-61
2022/05/31 09:48:04;;;;;;;5.15;1.90;;;20.30;56.10;;;;;;5063858;28;20048;-61
2022/05/31 09:50:31;;;;;;;5.50;2.10;;;20.30;55.90;;;;;;5060751;28;20040;-61
2022/05/31 09:52:57;;;;;;;6.00;2.00;;;20.30;55.90;;;;;;5059636;28;20691;-61
2022/05/31 09:58:35;;;;;;;5.93;1.95;;;20.30;55.90;;;;;;5053907;28;20143;-62
2022/05/31 10:01:04;;;;;;;4.70;1.98;;;20.30;55.80;;;;;;5062218;28;20025;-62
2022/05/31 10:03:33;;;;;;;3.53;1.80;;;20.30;55.80;;;;;;5061797;28;20124;-61
2022/05/31 10:06:06;;;;;;;4.75;1.90;;;20.40;55.80;;;;;;5068833;28;20087;-61
2022/05/31 10:08:33;;;;;;;6.07;1.90;;;20.40;55.80;;;;;;5057272;28;20040;-61
2022/05/31 10:11:03;;;;;;;3.95;1.75;;;20.30;55.70;;;;;;5060004;28;20040;-61
2022/05/31 10:13:38;;;;;;;5.40;2.17;;;20.30;55.70;;;;;;5058114;28;20052;-61
2022/05/31 10:16:23;;;;;;;3.15;1.85;;;20.40;55.70;;;;;;5056580;28;20035;-62
2022/05/31 10:18:54;;;;;;;3.25;1.70;;;20.40;55.60;;;;;;5055825;28;20047;-61
2022/05/31 10:21:28;;;;;;;3.53;1.90;;;20.40;55.70;;;;;;5068398;28;20026;-60
2022/05/31 10:23:54;;;;;;;5.03;1.95;;;20.40;55.50;;;;;;5064128;28;20101;-61
2022/05/31 10:26:24;;;;;;;4.07;1.73;;;20.40;55.50;;;;;;5060584;28;20501;-61
2022/05/31 10:28:53;;;;;;;4.45;2.00;;;20.40;55.60;;;;;;5057603;28;20035;-61
2022/05/31 10:31:21;;;;;;;3.75;1.83;;;20.40;55.50;;;;;;5064262;28;20020;-61
2022/05/31 10:33:58;;;;;;;4.82;2.03;;;20.40;55.50;;;;;;5060702;28;20025;-62
2022/05/31 10:36:31;;;;;;;5.93;2.10;;;20.40;55.50;;;;;;5071877;28;20052;-61
2022/05/31 10:39:07;;;;;;;4.50;1.80;;;20.40;55.40;;;;;;5052253;28;20033;-61
2022/05/31 10:41:33;;;;;;;5.82;1.92;;;20.40;55.40;;;;;;5061113;28;20027;-61
2022/05/31 10:44:30;;;;;;;6.38;2.10;;;20.40;55.40;;;;;;5075399;28;20392;-62
2022/05/31 10:47:00;;;;;;;4.93;1.70;;;20.40;55.40;;;;;;5061120;28;20045;-61
2022/05/31 10:49:26;;;;;;;6.65;2.20;;;20.40;55.40;;;;;;5069870;28;20123;-61
2022/05/31 10:52:19;;;;;;;4.22;1.83;;;20.40;55.40;;;;;;5071008;28;20501;-62
2022/05/31 10:55:00;;;;;;;3.90;2.10;;;20.40;55.30;;;;;;5073239;28;20512;-61
2022/05/31 10:57:46;;;;;;;4.90;1.77;;;20.50;55.40;;;;;;5066318;28;20033;-61
2022/05/31 11:00:22;;;;;;;4.90;2.00;;;20.50;55.30;;;;;;5060489;28;20032;-62
2022/05/31 11:03:09;;;;;;;4.82;2.00;;;20.50;55.30;;;;;;5068923;28;20028;-61
2022/05/31 11:05:47;;;;;;;6.57;2.05;;;20.50;55.20;;;;;;5065825;28;20027;-61
2022/05/31 11:11:37;;;;;;;4.05;1.70;;;20.50;55.00;;;;;;5066403;28;20043;-62
2022/05/31 11:14:24;;;;;;;4.43;1.85;;;20.60;55.10;;;;;;5067467;28;20094;-62
2022/05/31 11:17:14;;;;;;;4.07;1.80;;;20.60;55.00;;;;;;5062712;28;20116;-62
2022/05/31 11:19:54;;;;;;;3.47;1.40;;;20.60;54.90;;;;;;5061636;28;20043;-61
2022/05/31 11:22:32;;;;;;;3.53;1.75;;;20.60;54.80;;;;;;5068918;28;20053;-62
2022/05/31 11:25:31;;;;;;;5.28;1.85;;;20.70;54.80;;;;;;5059606;28;20424;-61
2022/05/31 11:28:26;;;;;;;3.75;1.58;;;20.70;54.80;;;;;;5058891;28;20037;-61
2022/05/31 11:31:19;;;;;;;4.60;1.98;;;20.70;54.70;;;;;;5062517;28;20380;-61
2022/05/31 11:34:22;;;;;;;3.65;1.73;;;20.70;54.80;;;;;;5062819;28;20029;-61
2022/05/31 11:37:07;;;;;;;4.30;1.70;;;20.70;54.70;;;;;;5067994;28;20303;-62
2022/05/31 11:40:09;;;;;;;3.75;1.60;;;20.80;54.70;;;;;;5066994;28;20516;-61
2022/05/31 11:42:39;;;;;;;4.47;1.60;;;20.80;54.60;;;;;;5020276;28;20052;-61
2022/05/31 11:45:20;;;;;;;4.50;1.80;;;20.80;54.50;;;;;;5013632;28;20038;-61
2022/05/31 11:47:54;;;;;;;4.43;1.77;;;20.80;54.40;;;;;;5022518;28;20038;-61
2022/05/31 11:50:23;;;;;;;5.72;1.63;;;20.80;54.30;;;;;;5026803;28;20235;-61
2022/05/31 11:53:06;;;;;;;5.80;1.80;;;20.80;54.20;;;;;;5017639;28;20068;-61
2022/05/31 11:55:52;;;;;;;4.25;1.90;;;20.80;54.40;;;;;;5016621;28;20116;-61
2022/05/31 11:58:24;;;;;;;2.88;1.58;;;20.80;54.30;;;;;;5019607;28;20489;-61
2022/05/31 12:01:02;;;;;;;3.85;1.80;;;20.90;54.30;;;;;;5005406;28;20505;-61
2022/05/31 12:03:43;;;;;;;2.85;1.70;;;20.90;54.20;;;;;;5023093;28;20037;-61
2022/05/31 12:06:15;;;;;;;4.68;2.05;;;20.90;54.20;;;;;;5012584;28;20036;-62
2022/05/31 12:08:46;;;;;;;5.35;1.92;;;20.90;54.10;;;;;;5020502;28;20040;-61
2022/05/31 12:11:17;;;;;;;4.80;1.73;;;20.90;54.00;;;;;;5021037;28;20502;-62
2022/05/31 12:13:46;;;;;;;4.80;1.83;;;21.00;54.00;;;;;;5018378;28;20033;-62
2022/05/31 12:16:12;;;;;;;4.47;1.98;;;21.00;54.00;;;;;;5029297;28;20047;-62
2022/05/31 12:18:56;;;;;;;6.07;1.83;;;21.00;53.90;;;;;;5022952;28;20528;-61
2022/05/31 12:21:23;;;;;;;6.07;1.90;;;21.00;53.90;;;;;;5066342;28;20025;-62
2022/05/31 12:24:00;;;;;;;3.72;1.85;;;21.00;54.00;;;;;;5061120;28;20406;-62
2022/05/31 12:26:28;;;;;;;3.47;1.60;;;21.00;53.90;;;;;;5049730;28;20032;-62
2022/05/31 12:29:06;;;;;;;4.75;1.80;;;21.00;53.90;;;;;;5059774;28;20496;-61
2022/05/31 12:31:33;;;;;;;3.28;1.80;;;21.10;54.00;;;;;;5062466;28;20023;-62
2022/05/31 12:34:18;;;;;;;5.38;1.80;;;21.10;53.90;;;;;;5071410;28;20032;-62
2022/05/31 12:36:57;;;;;;;4.30;1.90;;;21.10;53.80;;;;;;5061483;28;20021;-61
2022/05/31 12:39:27;;;;;;;4.68;1.98;;;21.10;53.70;;;;;;5055682;28;20036;-61
2022/05/31 12:41:53;;;;;;;4.93;1.85;;;21.20;53.80;;;;;;5071127;28;20086;-62
2022/05/31 12:44:33;;;;;;;4.90;1.80;;;21.20;53.70;;;;;;5062698;28;20520;-61
2022/05/31 12:47:19;;;;;;;3.80;1.80;;;21.20;53.70;;;;;;5054091;28;20031;-61
2022/05/31 12:49:54;;;;;;;5.30;1.85;;;21.20;53.50;;;;;;5053409;28;20094;-62
2022/05/31 12:55:22;;;;;;;5.65;1.88;;;21.30;53.60;;;;;;5051162;28;20182;-61
2022/05/31 12:58:28;;;;;;;3.95;1.65;;;21.30;53.60;;;;;;5064527;28;20501;-62
2022/05/31 13:00:59;;;;;;;2.97;1.55;;;21.30;53.50;;;;;;5060433;28;20025;-62
2022/05/31 13:03:34;;;;;;;3.88;2.00;;;21.40;53.40;;;;;;5071558;28;20028;-62
2022/05/31 13:06:07;;;;;;;4.43;1.80;;;21.40;53.30;;;;;;5061214;28;20081;-62
2022/05/31 13:08:57;;;;;;;4.72;1.92;;;21.40;53.30;;;;;;5075909;28;20031;-61
2022/05/31 13:19:45;;;;;;;3.72;1.80;;;21.40;53.10;;;;;;5064502;28;20035;-62
2022/05/31 13:22:12;;;;;;;5.50;1.90;;;21.40;53.10;;;;;;5060771;28;20029;-61
2022/05/31 13:24:43;;;;;;;3.85;1.70;;;21.40;53.00;;;;;;5054567;28;20409;-62
2022/05/31 13:27:09;;;;;;;5.13;2.22;;;21.40;52.80;;;;;;5062348;28;20032;-62
2022/05/31 13:29:35;;;;;;;4.38;1.90;;;21.50;53.00;;;;;;5066472;28;20035;-62
2022/05/31 13:32:01;;;;;;;3.17;1.92;;;21.50;52.90;;;;;;5061087;28;20024;-62
2022/05/31 13:34:33;;;;;;;3.83;1.70;;;21.50;52.90;;;;;;5057154;28;20032;-62